Time;durP1;ratioP1;P1;durP2;ratioP2;P2;SDS_P1;SDS_P2;PMS_P1;PMS_P2;Temp;Humidity;BMP_temperature;BMP_pressure;BME280_temperature;BME280_humidity;BME280_pressure;Samples;Min_cycle;Max_cycle;Signal;HPM_P1;HPM_P2
2021/12/21 00:00:45;;;;;;;26.30;8.52;;;1.10;99.90;;;;;;4963027;28;20153;-90
2021/12/21 00:03:11;;;;;;;37.05;8.25;;;1.20;99.90;;;;;;4966288;28;20051;-89
2021/12/21 00:05:40;;;;;;;21.65;8.50;;;1.10;99.90;;;;;;4966206;28;20500;-90
2021/12/21 00:08:10;;;;;;;31.63;9.02;;;1.20;99.90;;;;;;4966011;28;20399;-89
2021/12/21 00:10:39;;;;;;;32.95;9.30;;;1.30;99.90;;;;;;4963955;28;20568;-90
2021/12/21 00:13:39;;;;;;;37.05;9.57;;;1.30;99.90;;;;;;4965976;28;20046;-90
2021/12/21 00:18:41;;;;;;;26.88;7.88;;;1.40;99.90;;;;;;4964574;28;20473;-90
2021/12/21 00:23:42;;;;;;;30.98;10.02;;;1.40;99.90;;;;;;4967465;28;20129;-90
2021/12/21 00:26:14;;;;;;;38.88;9.63;;;1.30;99.90;;;;;;4966619;28;20125;-90
2021/12/21 00:28:58;;;;;;;35.78;10.80;;;1.50;99.90;;;;;;4965204;28;20053;-89
2021/12/21 00:31:29;;;;;;;35.80;10.63;;;1.40;99.90;;;;;;4965252;28;20066;-89
2021/12/21 00:33:56;;;;;;;26.65;8.95;;;1.40;99.90;;;;;;4964174;28;20157;-89
2021/12/21 00:36:25;;;;;;;31.10;9.70;;;1.40;99.90;;;;;;4964372;28;20054;-88
2021/12/21 00:38:54;;;;;;;32.40;8.95;;;1.30;99.90;;;;;;4969077;28;20443;-89
2021/12/21 00:41:20;;;;;;;31.20;7.75;;;1.20;99.90;;;;;;4965635;28;20113;-89
2021/12/21 00:43:48;;;;;;;23.75;8.55;;;1.20;99.90;;;;;;4966324;28;20165;-89
2021/12/21 00:46:16;;;;;;;25.77;7.47;;;1.30;99.90;;;;;;4967248;28;20098;-89
2021/12/21 00:48:50;;;;;;;28.95;8.65;;;1.30;99.90;;;;;;4962842;28;20057;-89
2021/12/21 00:51:18;;;;;;;32.88;8.35;;;1.40;99.90;;;;;;4964927;28;20831;-90
2021/12/21 00:53:45;;;;;;;24.95;8.10;;;1.40;99.90;;;;;;4968641;28;21415;-88
2021/12/21 00:56:12;;;;;;;34.10;8.55;;;1.40;99.90;;;;;;4961981;28;20051;-90
2021/12/21 00:58:40;;;;;;;18.33;7.80;;;1.40;99.90;;;;;;4976729;28;20046;-90
2021/12/21 01:01:07;;;;;;;22.85;8.10;;;1.50;99.90;;;;;;4964792;28;20053;-90
2021/12/21 01:03:38;;;;;;;22.15;7.85;;;1.40;99.90;;;;;;4964563;28;20051;-89
2021/12/21 01:06:13;;;;;;;24.80;8.60;;;1.60;99.90;;;;;;4965320;28;20085;-90
2021/12/21 01:11:30;;;;;;;24.10;7.68;;;1.60;99.90;;;;;;4964663;28;20466;-89
2021/12/21 01:14:10;;;;;;;31.48;7.80;;;1.60;99.90;;;;;;4968715;28;20165;-90
2021/12/21 01:16:46;;;;;;;26.38;7.07;;;1.60;99.90;;;;;;4978968;28;20432;-86
2021/12/21 01:19:21;;;;;;;27.63;7.63;;;1.60;99.90;;;;;;4957041;28;20055;-89
2021/12/21 01:22:11;;;;;;;29.33;9.00;;;1.60;99.90;;;;;;4961620;28;20051;-89
2021/12/21 01:24:56;;;;;;;33.13;8.30;;;1.60;99.90;;;;;;4962201;28;20049;-89
2021/12/21 01:27:52;;;;;;;30.80;8.18;;;1.50;99.90;;;;;;4965175;28;20150;-89
2021/12/21 01:30:36;;;;;;;28.00;8.60;;;1.40;99.90;;;;;;4956336;28;20130;-89
2021/12/21 01:33:51;;;;;;;27.05;8.57;;;1.40;99.90;;;;;;4960765;28;20614;-89
2021/12/21 01:35:58;;;;;;;27.40;7.90;;;1.30;99.90;;;;;;4958109;28;20137;-88
2021/12/21 01:38:33;;;;;;;28.77;7.82;;;1.30;99.90;;;;;;4960798;28;20047;-88
2021/12/21 01:41:24;;;;;;;27.65;7.80;;;1.40;99.90;;;;;;4964279;28;20512;-89
2021/12/21 01:44:06;;;;;;;22.63;7.55;;;1.50;99.90;;;;;;4977261;28;20137;-89
2021/12/21 01:52:10;;;;;;;24.35;8.23;;;1.30;99.90;;;;;;4960743;28;20086;-89
2021/12/21 01:54:37;;;;;;;23.50;8.00;;;1.30;99.90;;;;;;4968712;28;20650;-90
2021/12/21 01:57:05;;;;;;;35.58;7.53;;;1.30;99.90;;;;;;4966507;28;20148;-89
2021/12/21 01:59:33;;;;;;;36.30;8.77;;;1.40;99.90;;;;;;4967106;28;20138;-90
2021/12/21 02:02:00;;;;;;;22.63;7.30;;;1.30;99.90;;;;;;4969250;28;20054;-89
2021/12/21 02:04:27;;;;;;;25.33;8.07;;;1.30;99.90;;;;;;4974440;28;20243;-89
2021/12/21 02:06:54;;;;;;;31.77;7.65;;;1.30;99.90;;;;;;4966353;28;20081;-89
2021/12/21 02:09:26;;;;;;;25.13;8.13;;;1.30;99.90;;;;;;4975433;28;20050;-89
2021/12/21 02:11:53;;;;;;;26.00;8.05;;;1.20;99.90;;;;;;4973185;28;20129;-89
2021/12/21 02:14:19;;;;;;;30.02;9.40;;;1.00;99.90;;;;;;4969130;28;20145;-89
2021/12/21 02:19:28;;;;;;;33.25;9.23;;;1.00;99.90;;;;;;4969689;28;20129;-89
2021/12/21 02:22:18;;;;;;;37.03;9.30;;;0.90;99.90;;;;;;4967116;28;20054;-89
2021/12/21 02:25:00;;;;;;;30.98;8.35;;;1.00;99.90;;;;;;4981950;28;20089;-88
2021/12/21 02:27:30;;;;;;;39.55;10.38;;;0.80;99.90;;;;;;4967995;28;20129;-89
2021/12/21 02:29:56;;;;;;;40.35;9.23;;;1.00;99.90;;;;;;4968462;28;20118;-89
2021/12/21 02:32:23;;;;;;;28.30;10.13;;;1.10;99.90;;;;;;4967202;28;20086;-89
2021/12/21 02:34:50;;;;;;;29.55;8.82;;;1.10;99.90;;;;;;4959184;28;20058;-89
2021/12/21 02:37:17;;;;;;;30.65;9.65;;;1.20;99.90;;;;;;4965759;28;20086;-90
2021/12/21 02:39:44;;;;;;;33.08;9.85;;;1.30;99.90;;;;;;4964566;28;20133;-90
2021/12/21 02:42:11;;;;;;;28.05;9.10;;;1.30;99.90;;;;;;4968932;28;20137;-89
2021/12/21 02:44:38;;;;;;;25.20;8.65;;;1.20;99.90;;;;;;4966253;28;20129;-89
2021/12/21 02:47:05;;;;;;;33.60;9.27;;;1.20;99.90;;;;;;4964661;28;20051;-89
2021/12/21 02:49:34;;;;;;;29.85;9.30;;;1.10;99.90;;;;;;4968806;28;20121;-90
2021/12/21 02:52:01;;;;;;;38.30;9.50;;;0.90;99.90;;;;;;4965680;28;20140;-89
2021/12/21 02:54:28;;;;;;;30.17;9.50;;;0.80;99.90;;;;;;4962628;28;20113;-90
2021/12/21 02:56:58;;;;;;;29.13;10.40;;;0.60;99.90;;;;;;4963860;28;20126;-89
2021/12/21 02:59:25;;;;;;;34.60;10.90;;;0.70;99.90;;;;;;4961722;28;20053;-89
2021/12/21 03:01:52;;;;;;;35.65;10.52;;;0.70;99.90;;;;;;4965227;28;20043;-89
2021/12/21 03:04:19;;;;;;;26.52;8.85;;;0.60;99.90;;;;;;4965269;28;20059;-89
2021/12/21 03:12:11;;;;;;;40.67;8.85;;;0.50;99.90;;;;;;4962639;28;20415;-90
2021/12/21 03:14:38;;;;;;;30.90;9.25;;;0.30;99.90;;;;;;4983664;28;20082;-89
2021/12/21 03:17:06;;;;;;;43.03;13.85;;;0.50;99.90;;;;;;4971904;28;20078;-89
2021/12/21 03:19:33;;;;;;;32.60;10.23;;;0.40;99.90;;;;;;4988985;28;20130;-89
2021/12/21 03:22:00;;;;;;;31.67;10.50;;;0.40;99.90;;;;;;4983047;28;20610;-89
2021/12/21 03:24:27;;;;;;;27.27;9.00;;;0.50;99.90;;;;;;4968665;28;20085;-89
2021/12/21 03:26:53;;;;;;;36.05;10.65;;;0.40;99.90;;;;;;4966576;28;20134;-89
2021/12/21 03:29:20;;;;;;;30.17;11.43;;;0.40;99.90;;;;;;4967169;28;20136;-88
2021/12/21 03:31:47;;;;;;;30.90;11.38;;;0.50;99.90;;;;;;4980158;28;20141;-89
2021/12/21 03:34:14;;;;;;;32.72;11.35;;;0.60;99.90;;;;;;4961708;28;20055;-89
2021/12/21 03:36:41;;;;;;;49.50;13.90;;;0.70;99.90;;;;;;4985133;28;20050;-90
2021/12/21 03:39:15;;;;;;;36.53;11.73;;;0.60;99.90;;;;;;4977937;28;20444;-90
2021/12/21 03:41:47;;;;;;;33.80;9.30;;;0.50;99.90;;;;;;4986860;28;20153;-90
2021/12/21 03:44:17;;;;;;;31.60;11.20;;;0.40;99.90;;;;;;4980261;28;20133;-89
2021/12/21 03:46:49;;;;;;;33.17;12.27;;;0.40;99.90;;;;;;4988911;28;20154;-90
2021/12/21 03:51:57;;;;;;;42.33;11.85;;;0.30;99.90;;;;;;4965540;28;20144;-90
2021/12/21 03:54:24;;;;;;;52.72;13.95;;;0.30;99.90;;;;;;4969472;28;20047;-91
2021/12/21 03:56:52;;;;;;;45.55;13.00;;;0.30;99.90;;;;;;4963830;28;20079;-89
2021/12/21 03:59:20;;;;;;;42.45;12.52;;;0.30;99.90;;;;;;4964715;28;20154;-90
2021/12/21 04:01:49;;;;;;;58.35;13.60;;;0.20;99.90;;;;;;4963657;28;20622;-88
2021/12/21 04:04:21;;;;;;;44.55;13.02;;;0.20;99.90;;;;;;4965646;28;20039;-89
2021/12/21 04:06:48;;;;;;;46.95;12.35;;;0.10;99.90;;;;;;4966006;28;20050;-90
2021/12/21 04:09:16;;;;;;;56.08;13.40;;;0.20;99.90;;;;;;4966065;28;20803;-90
2021/12/21 04:11:42;;;;;;;41.67;12.88;;;0.00;99.90;;;;;;4984428;28;20173;-89
2021/12/21 04:14:11;;;;;;;48.78;14.43;;;0.10;99.90;;;;;;4963578;28;20555;-90
2021/12/21 04:16:39;;;;;;;47.33;14.98;;;0.10;99.90;;;;;;4962778;28;20223;-89
2021/12/21 04:19:05;;;;;;;43.90;14.63;;;0.20;99.90;;;;;;4979891;28;20049;-89
2021/12/21 04:21:33;;;;;;;60.83;16.33;;;0.20;99.90;;;;;;4967318;28;20054;-90
2021/12/21 04:24:00;;;;;;;44.05;13.90;;;0.20;99.90;;;;;;4976435;28;20130;-89
2021/12/21 04:26:27;;;;;;;50.33;14.40;;;0.10;99.90;;;;;;4965410;28;20839;-89
2021/12/21 04:28:53;;;;;;;44.22;14.80;;;0.20;99.90;;;;;;4965218;28;20093;-89
2021/12/21 04:31:20;;;;;;;41.58;15.43;;;0.50;99.90;;;;;;4969525;28;20438;-90
2021/12/21 04:33:49;;;;;;;46.20;16.95;;;0.50;99.90;;;;;;4964184;28;20059;-89
2021/12/21 04:36:16;;;;;;;53.65;15.68;;;0.40;99.90;;;;;;4961165;28;20119;-90
2021/12/21 04:38:47;;;;;;;47.90;17.20;;;0.40;99.90;;;;;;4984033;28;20130;-89
2021/12/21 04:41:22;;;;;;;55.65;17.45;;;0.40;99.90;;;;;;4962994;28;20043;-89
2021/12/21 04:43:50;;;;;;;53.50;17.48;;;0.40;99.90;;;;;;4966307;28;20046;-89
2021/12/21 04:46:17;;;;;;;61.22;16.63;;;0.50;99.90;;;;;;4980868;28;20500;-89
2021/12/21 04:48:44;;;;;;;63.33;17.52;;;0.50;99.90;;;;;;4966553;28;20130;-89
2021/12/21 04:51:11;;;;;;;75.95;17.65;;;1.30;99.90;;;;;;4983524;28;20123;-89
2021/12/21 04:53:39;;;;;;;66.40;17.27;;;0.60;99.90;;;;;;4964933;28;20138;-88
2021/12/21 04:56:06;;;;;;;65.28;17.83;;;0.50;99.90;;;;;;4967457;28;20487;-89
2021/12/21 04:58:33;;;;;;;71.50;19.85;;;0.50;99.90;;;;;;4966712;28;20133;-89
2021/12/21 05:01:00;;;;;;;80.88;18.30;;;0.70;99.90;;;;;;4964635;28;20074;-89
2021/12/21 05:03:27;;;;;;;83.80;18.00;;;0.60;99.90;;;;;;4967222;28;20046;-89
2021/12/21 05:05:54;;;;;;;63.65;18.98;;;0.60;99.90;;;;;;4968049;28;20054;-89
2021/12/21 05:08:24;;;;;;;73.10;18.10;;;0.50;99.90;;;;;;4971192;28;20078;-89
2021/12/21 05:10:56;;;;;;;76.93;19.50;;;0.50;99.90;;;;;;4971058;28;20094;-89
2021/12/21 05:13:27;;;;;;;88.68;20.50;;;0.40;99.90;;;;;;4982359;28;20119;-89
2021/12/21 05:15:55;;;;;;;97.25;23.42;;;0.70;99.90;;;;;;4983473;28;20105;-87
2021/12/21 05:18:22;;;;;;;90.75;21.60;;;0.60;99.90;;;;;;4968536;28;20499;-89
2021/12/21 05:20:50;;;;;;;169.65;24.17;;;0.70;99.90;;;;;;4975392;28;20089;-90
2021/12/21 05:23:17;;;;;;;228.48;25.67;;;0.80;99.90;;;;;;4989000;28;20043;-89
2021/12/21 05:25:45;;;;;;;283.77;26.17;;;0.80;99.90;;;;;;4978770;28;20121;-89
2021/12/21 05:28:13;;;;;;;174.38;24.52;;;0.80;99.90;;;;;;4967596;28;20137;-89
2021/12/21 05:30:41;;;;;;;144.15;23.85;;;0.90;99.90;;;;;;4982697;28;20154;-88
2021/12/21 05:33:09;;;;;;;128.07;23.42;;;0.90;99.90;;;;;;4972686;28;20142;-88
2021/12/21 05:35:36;;;;;;;130.13;23.58;;;0.90;99.90;;;;;;4974307;28;20101;-88
2021/12/21 05:38:06;;;;;;;166.57;23.60;;;0.80;99.90;;;;;;4972251;28;20078;-89
2021/12/21 05:40:38;;;;;;;146.57;21.13;;;1.00;99.90;;;;;;4971292;28;20138;-90
2021/12/21 05:43:07;;;;;;;226.27;22.95;;;1.00;99.90;;;;;;4979767;28;20073;-88
2021/12/21 05:45:34;;;;;;;241.10;24.00;;;1.00;99.90;;;;;;4994769;28;20074;-89
2021/12/21 05:48:01;;;;;;;255.23;24.05;;;1.00;99.90;;;;;;4993075;28;20124;-90
2021/12/21 05:50:28;;;;;;;257.60;23.98;;;0.90;99.90;;;;;;4981955;28;20061;-88
2021/12/21 05:52:55;;;;;;;205.40;23.80;;;1.00;99.90;;;;;;5001145;28;20122;-89
2021/12/21 05:55:23;;;;;;;408.02;27.88;;;0.90;99.90;;;;;;4979604;28;20113;-88
2021/12/21 05:58:01;;;;;;;441.38;29.70;;;0.90;99.90;;;;;;4989029;28;20054;-89
2021/12/21 06:00:34;;;;;;;285.75;24.02;;;1.00;99.90;;;;;;4981237;28;20134;-87
2021/12/21 06:03:06;;;;;;;317.92;25.95;;;1.10;99.90;;;;;;4974615;28;20639;-89
2021/12/21 06:05:33;;;;;;;229.95;23.58;;;1.00;99.90;;;;;;4966229;28;20133;-88
2021/12/21 06:08:00;;;;;;;302.25;24.52;;;0.80;99.90;;;;;;4973973;28;20062;-89
2021/12/21 06:10:34;;;;;;;293.65;25.92;;;1.00;99.90;;;;;;4971283;28;20141;-90
2021/12/21 06:23:58;;;;;;;177.70;23.70;;;1.10;99.90;;;;;;4977315;28;20077;-89
2021/12/21 06:26:18;;;;;;;323.92;25.52;;;1.10;99.90;;;;;;4976275;28;20322;-91
2021/12/21 06:28:46;;;;;;;180.00;24.23;;;1.10;99.90;;;;;;4974909;28;20535;-90
2021/12/21 06:31:14;;;;;;;276.02;25.58;;;1.90;99.90;;;;;;4972385;28;20054;-90
2021/12/21 06:33:41;;;;;;;235.55;22.73;;;0.90;99.90;;;;;;4986206;28;20047;-91
2021/12/21 06:36:09;;;;;;;271.90;22.02;;;1.10;99.90;;;;;;4970075;28;20469;-90
2021/12/21 06:38:36;;;;;;;190.60;19.60;;;1.00;99.90;;;;;;4963120;28;20074;-91
2021/12/21 06:41:03;;;;;;;170.02;21.77;;;1.00;99.90;;;;;;4974118;28;20595;-88
2021/12/21 06:43:32;;;;;;;201.15;21.75;;;0.90;99.90;;;;;;4973688;28;20117;-91
2021/12/21 06:46:11;;;;;;;413.23;25.95;;;1.00;99.90;;;;;;4972472;28;20399;-90
2021/12/21 06:51:34;;;;;;;359.38;24.25;;;0.80;99.90;;;;;;4982435;28;20129;-90
2021/12/21 06:54:01;;;;;;;230.50;21.33;;;0.80;99.90;;;;;;4988630;28;20145;-90
2021/12/21 06:56:28;;;;;;;182.77;21.05;;;0.50;99.90;;;;;;4974263;28;20294;-91
2021/12/21 06:58:55;;;;;;;246.30;24.35;;;0.60;99.90;;;;;;4989295;28;20050;-91
2021/12/21 07:01:25;;;;;;;318.80;25.42;;;0.30;99.90;;;;;;4971229;28;20055;-89
2021/12/21 07:03:52;;;;;;;304.63;24.73;;;0.50;99.90;;;;;;4965883;28;20205;-91
2021/12/21 07:06:20;;;;;;;230.38;23.45;;;0.60;99.90;;;;;;4961029;28;20071;-89
2021/12/21 07:09:14;;;;;;;169.80;21.58;;;0.50;99.90;;;;;;4966868;28;20547;-90
2021/12/21 07:19:35;;;;;;;196.38;22.90;;;0.20;99.90;;;;;;4969625;28;20078;-91
2021/12/21 07:22:03;;;;;;;138.70;21.70;;;0.50;99.90;;;;;;4978895;28;20518;-90
2021/12/21 07:24:31;;;;;;;217.48;24.33;;;0.50;99.90;;;;;;4965295;28;20312;-90
2021/12/21 07:26:58;;;;;;;182.70;23.70;;;0.50;99.90;;;;;;4985779;28;20178;-91
2021/12/21 07:29:25;;;;;;;154.43;22.63;;;0.40;99.90;;;;;;4969464;28;20051;-90
2021/12/21 07:31:52;;;;;;;178.25;26.05;;;0.40;99.90;;;;;;4970829;28;20109;-91
2021/12/21 07:34:19;;;;;;;220.43;26.30;;;0.50;99.90;;;;;;4969136;28;20078;-90
2021/12/21 07:36:46;;;;;;;122.53;24.85;;;0.40;99.90;;;;;;4983224;28;20143;-91
2021/12/21 07:39:17;;;;;;;193.98;23.88;;;0.40;99.90;;;;;;4975222;28;20108;-90
2021/12/21 07:41:57;;;;;;;117.20;21.95;;;0.10;99.90;;;;;;4963907;28;20061;-84
2021/12/21 07:44:24;;;;;;;126.53;23.83;;;0.40;99.90;;;;;;4970395;28;20102;-90
2021/12/21 07:46:51;;;;;;;173.30;26.13;;;0.40;99.90;;;;;;4987864;28;20067;-91
2021/12/21 07:49:18;;;;;;;179.95;27.92;;;0.40;99.90;;;;;;4986435;28;20387;-90
2021/12/21 07:51:45;;;;;;;255.55;27.10;;;0.40;99.90;;;;;;4971394;28;20057;-90
2021/12/21 07:54:12;;;;;;;318.88;30.95;;;0.40;99.90;;;;;;4985190;28;20791;-91
2021/12/21 07:56:39;;;;;;;227.00;27.90;;;0.90;99.90;;;;;;4969715;28;20082;-91
2021/12/21 07:59:05;;;;;;;385.52;30.83;;;0.40;99.90;;;;;;4985795;28;20050;-91
2021/12/21 08:01:32;;;;;;;224.80;28.65;;;0.70;99.90;;;;;;4969841;28;20085;-90
2021/12/21 08:04:00;;;;;;;222.30;26.42;;;0.40;99.90;;;;;;4971474;28;20331;-90
2021/12/21 08:06:32;;;;;;;267.10;26.70;;;0.40;99.90;;;;;;4968807;28;20078;-91
2021/12/21 08:09:01;;;;;;;307.70;28.80;;;0.50;99.90;;;;;;4987980;28;20055;-90
2021/12/21 08:12:10;;;;;;;253.13;27.40;;;0.40;99.90;;;;;;4963928;28;20461;-91
2021/12/21 08:14:14;;;;;;;226.40;24.02;;;0.40;99.90;;;;;;4977594;28;20138;-91
2021/12/21 08:16:41;;;;;;;192.27;23.98;;;0.20;99.90;;;;;;4974768;28;20104;-91
2021/12/21 08:19:08;;;;;;;169.45;24.08;;;0.30;99.90;;;;;;4968641;28;20122;-91
2021/12/21 08:21:35;;;;;;;145.68;24.50;;;0.40;99.90;;;;;;4969229;28;20546;-92
2021/12/21 08:24:02;;;;;;;101.50;25.52;;;0.40;99.90;;;;;;4975318;28;20134;-90
2021/12/21 08:26:32;;;;;;;120.20;23.77;;;0.40;99.90;;;;;;4974302;28;20062;-91
2021/12/21 08:28:59;;;;;;;97.68;22.63;;;0.40;99.90;;;;;;4968858;28;20089;-90
2021/12/21 08:31:27;;;;;;;90.88;22.25;;;0.40;99.90;;;;;;4970410;28;20400;-91
2021/12/21 08:34:06;;;;;;;93.70;23.33;;;0.50;99.90;;;;;;4974189;28;20075;-91
2021/12/21 08:36:33;;;;;;;96.40;23.70;;;0.60;99.90;;;;;;4955165;29;20059;-91
2021/12/21 08:38:59;;;;;;;206.50;33.08;;;0.60;99.90;;;;;;4969075;28;20106;-91
2021/12/21 08:41:41;;;;;;;86.40;24.77;;;0.60;99.90;;;;;;4973771;28;20611;-91
2021/12/21 08:44:10;;;;;;;86.32;25.15;;;0.70;99.90;;;;;;4973307;28;20078;-90
2021/12/21 08:46:39;;;;;;;77.72;23.13;;;0.80;99.90;;;;;;4973611;28;20074;-91
2021/12/21 08:49:06;;;;;;;82.43;23.73;;;0.80;99.90;;;;;;4974489;28;20105;-91
2021/12/21 08:51:32;;;;;;;79.28;24.35;;;0.90;99.90;;;;;;4974438;28;20054;-91
2021/12/21 08:53:59;;;;;;;69.90;22.45;;;0.70;99.90;;;;;;4973813;28;20110;-91
2021/12/21 08:56:33;;;;;;;67.25;22.65;;;0.70;99.90;;;;;;4990259;28;20061;-90
2021/12/21 08:59:13;;;;;;;75.53;23.60;;;0.70;99.90;;;;;;4968824;28;20042;-91
2021/12/21 09:01:39;;;;;;;72.75;24.13;;;0.90;99.90;;;;;;4971898;28;20110;-91
2021/12/21 09:04:06;;;;;;;77.38;26.55;;;1.10;99.90;;;;;;4969598;28;20044;-91
2021/12/21 09:06:34;;;;;;;83.95;25.58;;;0.90;99.90;;;;;;4981023;28;20049;-91
2021/12/21 09:09:03;;;;;;;73.80;26.67;;;0.90;99.90;;;;;;4968123;28;20055;-91
2021/12/21 09:11:30;;;;;;;73.88;26.25;;;1.10;99.90;;;;;;4967949;28;20051;-91
2021/12/21 09:13:56;;;;;;;71.47;25.73;;;1.10;99.90;;;;;;4970696;28;20079;-91
2021/12/21 09:16:23;;;;;;;73.80;24.40;;;0.80;99.90;;;;;;4977929;28;20063;-90
2021/12/21 09:18:50;;;;;;;70.13;24.88;;;1.20;99.90;;;;;;4973428;28;20137;-91
2021/12/21 09:21:17;;;;;;;65.07;22.90;;;1.20;99.90;;;;;;4973597;28;20078;-90
2021/12/21 09:23:44;;;;;;;66.53;23.00;;;1.20;99.90;;;;;;4973528;28;20077;-91
2021/12/21 09:26:13;;;;;;;64.97;21.80;;;1.20;99.90;;;;;;4973648;28;20055;-90
2021/12/21 09:28:44;;;;;;;58.33;20.52;;;0.70;99.90;;;;;;4989454;28;20134;-91
2021/12/21 09:31:12;;;;;;;67.82;22.20;;;0.90;99.90;;;;;;4973927;28;20141;-91
2021/12/21 09:33:39;;;;;;;59.88;21.35;;;0.90;99.90;;;;;;4989439;28;20049;-91
2021/12/21 09:36:05;;;;;;;61.40;22.23;;;0.90;99.90;;;;;;4986299;28;20137;-91
2021/12/21 09:38:48;;;;;;;59.58;22.77;;;0.80;99.90;;;;;;4964857;28;20154;-92
2021/12/21 09:41:15;;;;;;;57.42;20.83;;;0.90;99.90;;;;;;4974220;28;20082;-91
2021/12/21 09:43:43;;;;;;;70.95;21.70;;;0.70;99.90;;;;;;4973897;28;20054;-91
2021/12/21 09:46:10;;;;;;;60.65;21.73;;;1.20;99.90;;;;;;4990022;28;20381;-92
2021/12/21 09:48:38;;;;;;;72.93;22.80;;;1.40;99.90;;;;;;4973920;28;20129;-89
2021/12/21 09:51:05;;;;;;;68.80;22.08;;;1.60;99.90;;;;;;4974116;28;20146;-92
2021/12/21 09:53:33;;;;;;;76.28;22.00;;;1.70;99.90;;;;;;4973182;28;20074;-91
2021/12/21 09:56:02;;;;;;;76.32;23.55;;;1.80;99.90;;;;;;4973162;28;20101;-91
2021/12/21 09:58:30;;;;;;;75.38;22.50;;;2.00;99.90;;;;;;4972283;28;20050;-91
2021/12/21 10:01:00;;;;;;;65.45;22.27;;;2.10;99.90;;;;;;4972016;28;20113;-92
2021/12/21 10:03:27;;;;;;;72.38;21.88;;;2.20;99.90;;;;;;4971977;28;20059;-92
2021/12/21 10:06:07;;;;;;;63.45;22.00;;;2.50;99.90;;;;;;4992784;28;20122;-92
2021/12/21 10:08:34;;;;;;;64.88;22.05;;;2.50;99.90;;;;;;4966379;28;20078;-91
2021/12/21 10:11:03;;;;;;;65.35;22.08;;;2.90;99.90;;;;;;4950798;28;20599;-91
2021/12/21 10:13:30;;;;;;;72.47;22.85;;;3.20;99.90;;;;;;4979287;28;20113;-93
2021/12/21 10:16:00;;;;;;;67.68;21.33;;;3.40;99.90;;;;;;4975543;28;20463;-92
2021/12/21 10:18:30;;;;;;;83.22;22.27;;;3.50;99.90;;;;;;4977066;28;20050;-92
2021/12/21 10:20:59;;;;;;;65.13;22.17;;;3.40;99.90;;;;;;4977659;28;20085;-92
2021/12/21 10:23:32;;;;;;;72.65;21.88;;;3.30;99.90;;;;;;4976380;28;20062;-91
2021/12/21 10:26:11;;;;;;;69.22;22.45;;;3.20;99.90;;;;;;4975622;28;20051;-91
2021/12/21 10:28:38;;;;;;;59.90;21.60;;;3.30;99.90;;;;;;4975853;28;20089;-91
2021/12/21 10:31:08;;;;;;;73.18;22.20;;;3.10;99.90;;;;;;4976117;28;20050;-92
2021/12/21 10:33:36;;;;;;;72.00;20.98;;;3.10;99.90;;;;;;4975513;28;20050;-92
2021/12/21 10:36:07;;;;;;;70.43;22.20;;;2.80;99.90;;;;;;4981470;28;20673;-92
2021/12/21 10:38:51;;;;;;;62.72;20.20;;;3.00;99.90;;;;;;4991531;28;20078;-92
2021/12/21 10:41:28;;;;;;;61.53;21.33;;;3.00;99.90;;;;;;4975775;28;20097;-91
2021/12/21 10:44:04;;;;;;;63.30;19.13;;;3.20;99.90;;;;;;4980425;28;20071;-91
2021/12/21 10:46:53;;;;;;;44.08;17.92;;;3.30;99.90;;;;;;4976071;28;20057;-91
2021/12/21 10:49:37;;;;;;;56.75;19.92;;;3.60;99.90;;;;;;4976878;28;20051;-91
2021/12/21 10:52:09;;;;;;;51.70;19.13;;;3.80;99.90;;;;;;4976798;28;20051;-91
2021/12/21 10:58:58;;;;;;;54.00;18.38;;;3.60;99.90;;;;;;4977983;28;20090;-91
2021/12/21 11:01:44;;;;;;;55.28;18.25;;;3.40;99.90;;;;;;4976932;28;20057;-91
2021/12/21 11:04:13;;;;;;;54.70;18.48;;;3.20;99.90;;;;;;4974535;28;20527;-91
2021/12/21 11:06:47;;;;;;;58.22;19.27;;;3.00;99.90;;;;;;4965545;28;20050;-91
2021/12/21 11:09:14;;;;;;;48.03;18.30;;;2.90;99.90;;;;;;5012096;28;20081;-91
2021/12/21 11:11:48;;;;;;;51.55;18.98;;;2.90;99.90;;;;;;5011335;28;20750;-90
2021/12/21 11:14:18;;;;;;;53.55;18.55;;;3.30;99.90;;;;;;5001150;28;20050;-91
2021/12/21 11:16:48;;;;;;;45.88;17.95;;;3.10;99.90;;;;;;4972467;28;20055;-91
2021/12/21 11:19:17;;;;;;;56.30;19.20;;;3.80;99.90;;;;;;4975279;28;20499;-91
2021/12/21 11:21:46;;;;;;;56.85;19.52;;;3.10;99.90;;;;;;4972341;28;20173;-90
2021/12/21 11:24:27;;;;;;;48.70;19.52;;;4.00;99.90;;;;;;4969357;28;20122;-91
2021/12/21 11:26:54;;;;;;;51.13;19.10;;;4.10;99.90;;;;;;4974637;28;20059;-91
2021/12/21 11:29:30;;;;;;;56.58;18.77;;;4.20;99.90;;;;;;4957006;28;20122;-90
2021/12/21 11:32:01;;;;;;;58.83;20.05;;;3.50;99.90;;;;;;4991257;28;20109;-90
2021/12/21 11:34:34;;;;;;;48.47;18.58;;;3.60;99.90;;;;;;4975766;28;20066;-90
2021/12/21 11:39:46;;;;;;;50.85;18.42;;;3.60;99.90;;;;;;4975926;28;20071;-90
2021/12/21 11:42:38;;;;;;;49.75;19.13;;;3.80;99.90;;;;;;4975659;28;20109;-90
2021/12/21 11:45:14;;;;;;;49.15;18.05;;;3.80;99.90;;;;;;4975463;28;20058;-90
2021/12/21 11:47:54;;;;;;;49.38;18.98;;;4.00;99.90;;;;;;4975215;28;20074;-90
2021/12/21 11:50:30;;;;;;;44.90;17.17;;;4.20;99.90;;;;;;4976026;28;20042;-90
2021/12/21 11:53:04;;;;;;;44.67;18.42;;;4.50;99.90;;;;;;4976520;28;20047;-88
2021/12/21 11:55:34;;;;;;;43.10;17.27;;;4.40;99.90;;;;;;4976246;28;20117;-89
2021/12/21 11:58:15;;;;;;;45.28;18.20;;;4.00;99.90;;;;;;4976995;28;20134;-89
2021/12/21 12:00:53;;;;;;;42.90;18.73;;;4.20;99.90;;;;;;4964139;28;20067;-89
2021/12/21 12:03:29;;;;;;;51.17;18.75;;;4.30;99.90;;;;;;4975217;28;20057;-89
2021/12/21 12:05:59;;;;;;;44.53;19.13;;;4.90;99.90;;;;;;4956123;28;20147;-89
2021/12/21 12:08:42;;;;;;;48.25;18.33;;;5.00;99.90;;;;;;4980051;28;20536;-89
2021/12/21 12:11:21;;;;;;;50.72;19.48;;;5.50;99.90;;;;;;4972532;28;20542;-89
2021/12/21 12:13:48;;;;;;;45.88;19.15;;;4.80;99.90;;;;;;4968054;28;20054;-88
2021/12/21 12:16:16;;;;;;;39.38;16.77;;;4.50;99.90;;;;;;4975923;28;20130;-88
2021/12/21 12:18:49;;;;;;;43.97;17.40;;;4.10;99.90;;;;;;4992333;28;20050;-88
2021/12/21 12:21:20;;;;;;;55.97;20.02;;;4.00;99.90;;;;;;4988682;28;20055;-83
2021/12/21 12:24:01;;;;;;;48.20;18.45;;;3.30;99.90;;;;;;4959296;28;20546;-88
2021/12/21 12:26:34;;;;;;;45.65;17.75;;;3.40;99.90;;;;;;4991297;28;20505;-86
2021/12/21 12:29:16;;;;;;;46.53;17.98;;;3.60;99.90;;;;;;4974991;28;20077;-88
2021/12/21 12:32:02;;;;;;;44.63;17.30;;;3.60;99.90;;;;;;4975230;28;20499;-88
2021/12/21 12:34:32;;;;;;;48.30;18.20;;;3.70;99.90;;;;;;4977133;28;20055;-88
2021/12/21 12:37:01;;;;;;;41.47;17.92;;;4.10;99.90;;;;;;4993522;28;20079;-87
2021/12/21 12:39:37;;;;;;;43.67;18.13;;;4.30;99.90;;;;;;4960835;28;20074;-88
2021/12/21 12:42:14;;;;;;;43.28;17.92;;;4.10;99.90;;;;;;4976801;28;20121;-89
2021/12/21 12:44:42;;;;;;;51.38;18.63;;;4.50;99.90;;;;;;4978938;28;20471;-88
2021/12/21 12:47:12;;;;;;;47.70;19.83;;;4.40;99.90;;;;;;4995881;28;20096;-88
2021/12/21 12:49:52;;;;;;;41.45;17.48;;;4.30;99.90;;;;;;4969505;28;20143;-88
2021/12/21 12:52:28;;;;;;;38.38;15.50;;;4.40;99.90;;;;;;4975780;28;20058;-88
2021/12/21 12:54:56;;;;;;;41.97;16.92;;;4.60;99.90;;;;;;4974300;28;20062;-88
2021/12/21 12:57:36;;;;;;;33.67;15.43;;;5.10;99.90;;;;;;4990411;28;20062;-87
2021/12/21 13:00:28;;;;;;;35.55;14.52;;;5.40;99.90;;;;;;4974446;28;20101;-88
2021/12/21 13:03:06;;;;;;;39.95;16.42;;;5.10;99.90;;;;;;4974063;28;20133;-88
2021/12/21 13:05:53;;;;;;;34.15;15.70;;;4.90;99.90;;;;;;4975062;28;20065;-88
2021/12/21 13:08:22;;;;;;;38.75;15.07;;;4.40;99.90;;;;;;4973923;28;20051;-86
2021/12/21 13:10:52;;;;;;;36.58;15.52;;;4.30;99.90;;;;;;4973545;28;20504;-85
2021/12/21 13:13:20;;;;;;;38.60;15.55;;;4.40;99.90;;;;;;4989449;28;20098;-90
2021/12/21 13:15:50;;;;;;;41.58;15.38;;;3.90;99.90;;;;;;4974456;28;20141;-90
2021/12/21 13:18:19;;;;;;;37.70;13.82;;;3.80;99.90;;;;;;4972257;28;20069;-90
2021/12/21 13:20:50;;;;;;;34.70;14.48;;;3.50;99.90;;;;;;4973072;28;20067;-89
2021/12/21 13:23:26;;;;;;;35.85;15.07;;;3.30;99.90;;;;;;4974361;28;20126;-90
2021/12/21 13:25:59;;;;;;;36.83;14.20;;;3.50;99.90;;;;;;4957992;28;20074;-90
2021/12/21 13:28:35;;;;;;;42.63;15.82;;;3.20;99.90;;;;;;4989696;28;20118;-90
2021/12/21 13:31:06;;;;;;;33.85;14.68;;;3.00;99.90;;;;;;4969831;28;20132;-90
2021/12/21 13:33:33;;;;;;;38.95;15.25;;;3.10;99.90;;;;;;4972664;28;20154;-90
2021/12/21 13:36:06;;;;;;;35.70;14.07;;;2.90;99.90;;;;;;4977871;28;20054;-91
2021/12/21 13:38:35;;;;;;;40.30;15.90;;;2.80;99.90;;;;;;4988804;28;20724;-90
2021/12/21 13:41:09;;;;;;;36.95;15.05;;;2.70;99.90;;;;;;4954080;29;20516;-90
2021/12/21 13:43:39;;;;;;;31.75;14.50;;;2.60;99.90;;;;;;4966390;28;20093;-90
2021/12/21 13:46:08;;;;;;;34.97;13.80;;;2.50;99.90;;;;;;4972685;28;20077;-90